Time;durP1;ratioP1;P1;durP2;ratioP2;P2;SDS_P1;SDS_P2;PMS_P1;PMS_P2;Temp;Humidity;BMP_temperature;BMP_pressure;BME280_temperature;BME280_humidity;BME280_pressure;Samples;Min_cycle;Max_cycle;Signal;HPM_P1;HPM_P2
2022/10/30 00:01:26;;;;;;;21.40;9.25;;;16.10;1.00;;;;;;5072315;28;20907;-57
2022/10/30 00:03:52;;;;;;;16.33;8.00;;;16.10;1.00;;;;;;5072109;28;20432;-53
2022/10/30 00:06:17;;;;;;;22.47;9.03;;;16.00;1.00;;;;;;5072758;28;20387;-53
2022/10/30 00:08:43;;;;;;;20.23;8.57;;;15.90;1.00;;;;;;5071703;28;20414;-53
2022/10/30 00:11:11;;;;;;;17.40;8.47;;;16.00;1.00;;;;;;5072060;28;20392;-54
2022/10/30 00:13:38;;;;;;;21.48;8.70;;;17.40;1.00;;;;;;5071203;28;20865;-53
2022/10/30 00:16:06;;;;;;;18.83;8.50;;;15.80;1.00;;;;;;5054029;28;20431;-54
2022/10/30 00:18:33;;;;;;;17.75;8.30;;;15.80;1.00;;;;;;5071012;28;20383;-53
2022/10/30 00:21:08;;;;;;;19.40;8.38;;;15.80;1.00;;;;;;5072424;28;20410;-53
2022/10/30 00:23:33;;;;;;;17.88;9.10;;;15.90;1.00;;;;;;5071153;28;20441;-53
2022/10/30 00:26:03;;;;;;;18.50;8.50;;;15.90;1.00;;;;;;5072028;28;20384;-53
2022/10/30 00:28:28;;;;;;;19.23;8.00;;;16.00;1.00;;;;;;5071786;28;20484;-56
2022/10/30 00:30:57;;;;;;;17.47;8.10;;;16.00;1.00;;;;;;5071803;28;20861;-53
2022/10/30 00:33:22;;;;;;;18.92;8.93;;;16.00;1.00;;;;;;5071083;28;20442;-53
2022/10/30 00:35:48;;;;;;;20.52;9.20;;;16.00;1.00;;;;;;5071555;28;20380;-53
2022/10/30 00:38:14;;;;;;;19.20;8.40;;;16.10;1.00;;;;;;5071779;28;20380;-52
2022/10/30 00:40:39;;;;;;;18.92;8.30;;;16.10;1.00;;;;;;5070626;28;20721;-53
2022/10/30 00:43:30;;;;;;;21.52;8.98;;;16.10;99.90;;;;;;5071784;28;20392;-53
2022/10/30 00:46:00;;;;;;;20.35;8.60;;;16.10;99.90;;;;;;5071784;28;20399;-53
2022/10/30 00:48:27;;;;;;;19.95;7.97;;;16.00;99.90;;;;;;5071839;28;20691;-53
2022/10/30 00:50:54;;;;;;;22.63;8.50;;;16.00;99.90;;;;;;5071390;28;20367;-53
2022/10/30 00:53:21;;;;;;;17.80;8.48;;;15.90;99.90;;;;;;5071580;28;20403;-53
2022/10/30 00:55:54;;;;;;;16.00;8.70;;;15.90;99.90;;;;;;5069592;28;21200;-52
2022/10/30 00:58:26;;;;;;;16.38;8.02;;;15.80;99.90;;;;;;5071214;28;20437;-53
2022/10/30 01:00:55;;;;;;;14.27;7.90;;;15.80;1.00;;;;;;5070768;28;20394;-53
2022/10/30 01:03:23;;;;;;;19.15;7.60;;;15.80;99.90;;;;;;5071320;28;20401;-53
2022/10/30 01:05:54;;;;;;;17.15;8.80;;;15.80;99.90;;;;;;5070957;28;20474;-53
2022/10/30 01:08:19;;;;;;;21.60;8.82;;;15.80;99.90;;;;;;5070953;28;20371;-53
2022/10/30 01:10:47;;;;;;;16.60;8.47;;;15.70;99.90;;;;;;5069993;28;20380;-53
2022/10/30 01:13:13;;;;;;;22.30;8.60;;;15.70;1.00;;;;;;5071146;28;20494;-54
2022/10/30 01:16:00;;;;;;;16.70;8.20;;;15.70;1.00;;;;;;5069108;28;20380;-53
2022/10/30 01:18:44;;;;;;;19.55;8.68;;;15.70;1.00;;;;;;5071159;28;20426;-53
2022/10/30 01:21:37;;;;;;;16.40;8.07;;;15.70;1.00;;;;;;5069627;28;20773;-53
2022/10/30 01:24:15;;;;;;;21.33;8.60;;;15.80;1.00;;;;;;5071038;28;20841;-54
2022/10/30 01:26:51;;;;;;;17.60;7.38;;;15.70;1.00;;;;;;5070067;28;20852;-54
2022/10/30 01:29:34;;;;;;;23.45;9.00;;;15.70;1.00;;;;;;5070527;28;20428;-53
2022/10/30 01:32:26;;;;;;;19.95;9.23;;;15.60;1.00;;;;;;5070143;28;20626;-54
2022/10/30 01:35:14;;;;;;;19.33;7.70;;;15.50;1.00;;;;;;5069677;28;20433;-53
2022/10/30 01:38:19;;;;;;;21.65;8.70;;;15.40;1.00;;;;;;5069858;28;20845;-53
2022/10/30 01:40:44;;;;;;;19.75;8.55;;;15.30;1.00;;;;;;4987723;28;20827;-53
2022/10/30 01:43:10;;;;;;;15.90;7.97;;;15.30;1.00;;;;;;5055024;28;20392;-53
2022/10/30 01:46:09;;;;;;;16.90;7.53;;;15.40;1.00;;;;;;5068202;28;20898;-53
2022/10/30 01:49:17;;;;;;;17.73;7.80;;;15.30;1.00;;;;;;5069883;28;20383;-53
2022/10/30 01:52:21;;;;;;;19.07;8.10;;;15.40;1.00;;;;;;5069791;28;20395;-53
2022/10/30 01:54:58;;;;;;;20.50;7.60;;;15.50;1.00;;;;;;4997738;28;20545;-53
2022/10/30 01:57:54;;;;;;;16.08;7.97;;;15.40;1.00;;;;;;5069763;28;20412;-53
2022/10/30 02:00:20;;;;;;;17.85;7.97;;;15.40;1.00;;;;;;5069926;28;20387;-53
2022/10/30 02:02:48;;;;;;;17.60;7.83;;;15.40;1.00;;;;;;5069358;28;20457;-53
2022/10/30 02:05:24;;;;;;;18.53;7.70;;;15.30;1.00;;;;;;5070051;28;20390;-53
2022/10/30 02:07:50;;;;;;;15.82;7.80;;;15.30;1.00;;;;;;5068631;28;20452;-53
2022/10/30 02:10:16;;;;;;;15.80;6.97;;;15.40;1.00;;;;;;5069983;28;20767;-53
2022/10/30 02:12:42;;;;;;;13.20;6.63;;;15.40;1.00;;;;;;5069584;28;20403;-53
2022/10/30 02:15:08;;;;;;;15.23;7.50;;;15.40;1.00;;;;;;5070184;28;20388;-53
2022/10/30 02:17:34;;;;;;;21.08;8.68;;;15.50;1.00;;;;;;5068718;28;20391;-54
2022/10/30 02:20:00;;;;;;;16.88;7.03;;;15.50;1.00;;;;;;5070392;28;20380;-53
2022/10/30 02:22:25;;;;;;;13.30;6.70;;;15.40;1.00;;;;;;5069858;28;20394;-53
2022/10/30 02:24:51;;;;;;;14.17;6.63;;;15.40;1.00;;;;;;5069198;28;20379;-53
2022/10/30 02:27:16;;;;;;;16.38;7.03;;;15.40;1.00;;;;;;5069848;28;20391;-54
2022/10/30 02:29:42;;;;;;;17.73;7.47;;;15.40;1.00;;;;;;5069064;28;20887;-53
2022/10/30 02:32:07;;;;;;;17.53;7.50;;;15.50;1.00;;;;;;5069685;28;20511;-52
2022/10/30 02:34:33;;;;;;;17.83;8.30;;;15.40;1.00;;;;;;5069027;28;20932;-56
2022/10/30 02:36:58;;;;;;;18.75;8.23;;;15.40;1.00;;;;;;5069615;28;20375;-55
2022/10/30 02:39:24;;;;;;;15.20;7.47;;;15.40;1.00;;;;;;5070067;28;20470;-54
2022/10/30 02:41:50;;;;;;;15.70;7.30;;;15.30;1.00;;;;;;5069214;28;20721;-54
2022/10/30 02:44:15;;;;;;;14.60;7.50;;;15.30;1.00;;;;;;5051739;28;20388;-55
2022/10/30 02:46:41;;;;;;;13.98;6.70;;;15.30;1.00;;;;;;5069316;28;20372;-54
2022/10/30 02:49:06;;;;;;;19.93;7.50;;;15.20;1.00;;;;;;5069381;28;20895;-54
2022/10/30 02:51:32;;;;;;;21.10;7.80;;;15.30;1.00;;;;;;5069049;28;20386;-58
2022/10/30 02:53:59;;;;;;;13.77;6.80;;;15.30;1.00;;;;;;5069416;28;20372;-54
2022/10/30 02:56:25;;;;;;;14.55;6.85;;;15.30;1.00;;;;;;5069986;28;20383;-54
2022/10/30 02:58:50;;;;;;;16.17;7.25;;;15.30;1.00;;;;;;5069039;28;20372;-55
2022/10/30 03:01:18;;;;;;;14.93;6.90;;;15.20;1.00;;;;;;5069711;28;20697;-54
2022/10/30 03:03:45;;;;;;;18.77;8.37;;;15.30;1.00;;;;;;5068868;28;20521;-54
2022/10/30 03:06:14;;;;;;;16.15;6.50;;;15.20;1.00;;;;;;5069177;28;20451;-54
2022/10/30 03:08:40;;;;;;;13.65;6.80;;;15.30;1.00;;;;;;5068610;28;20395;-54
2022/10/30 03:11:12;;;;;;;14.30;6.78;;;15.30;1.00;;;;;;5070077;28;20401;-54
2022/10/30 03:13:39;;;;;;;14.93;7.07;;;15.40;99.90;;;;;;5068973;28;20418;-54
2022/10/30 03:16:10;;;;;;;17.15;7.57;;;15.40;99.90;;;;;;5070167;28;20411;-54
2022/10/30 03:18:36;;;;;;;15.13;6.90;;;15.30;99.90;;;;;;5051558;28;20388;-54
2022/10/30 03:21:05;;;;;;;16.65;6.90;;;15.30;99.90;;;;;;5072892;28;20378;-54
2022/10/30 03:23:30;;;;;;;16.35;7.05;;;15.20;99.90;;;;;;5072394;28;20394;-58
2022/10/30 03:25:57;;;;;;;19.45;7.35;;;15.10;99.90;;;;;;5072861;28;20388;-54
2022/10/30 03:28:26;;;;;;;13.48;7.10;;;15.00;99.90;;;;;;5073109;28;20376;-54
2022/10/30 03:30:58;;;;;;;13.48;7.10;;;14.80;1.00;;;;;;5072545;28;20383;-54
2022/10/30 03:33:24;;;;;;;16.77;7.03;;;14.60;1.00;;;;;;5072749;28;20469;-54
2022/10/30 03:35:49;;;;;;;15.25;7.13;;;14.70;1.00;;;;;;5072658;28;20403;-54
2022/10/30 03:38:15;;;;;;;18.77;7.20;;;14.80;1.00;;;;;;5073230;28;20375;-54
2022/10/30 03:40:41;;;;;;;16.05;7.55;;;14.70;1.00;;;;;;5071921;28;20409;-54
2022/10/30 03:43:07;;;;;;;21.53;7.17;;;14.60;1.00;;;;;;5055109;28;20379;-52
2022/10/30 03:45:33;;;;;;;16.90;6.82;;;14.60;1.00;;;;;;5071965;28;20428;-55
2022/10/30 03:48:03;;;;;;;23.05;7.70;;;14.50;1.00;;;;;;5072665;28;20474;-54
2022/10/30 03:50:29;;;;;;;16.57;7.67;;;14.40;1.00;;;;;;5072223;28;20431;-58
2022/10/30 03:52:56;;;;;;;15.52;7.25;;;14.40;1.00;;;;;;5072299;28;20412;-51
2022/10/30 03:55:22;;;;;;;13.15;5.90;;;14.30;1.00;;;;;;5072676;28;20399;-52
2022/10/30 03:57:48;;;;;;;18.67;7.38;;;14.10;1.00;;;;;;5071905;28;20371;-52
2022/10/30 04:00:15;;;;;;;15.40;7.00;;;14.10;1.00;;;;;;5071193;28;20411;-51
2022/10/30 04:02:48;;;;;;;17.85;7.30;;;14.10;1.00;;;;;;5071806;28;20391;-51
2022/10/30 04:05:19;;;;;;;15.35;7.35;;;14.10;1.00;;;;;;5072014;28;20379;-52
2022/10/30 04:07:45;;;;;;;14.95;6.50;;;14.00;1.00;;;;;;5071842;28;20375;-52
2022/10/30 04:10:12;;;;;;;16.73;6.73;;;14.10;1.00;;;;;;5071930;28;20407;-51
2022/10/30 04:12:38;;;;;;;15.85;7.45;;;14.10;1.00;;;;;;5071576;28;20465;-51
2022/10/30 04:15:05;;;;;;;20.10;7.20;;;14.00;1.00;;;;;;5072134;28;20383;-52
2022/10/30 04:17:31;;;;;;;16.13;6.30;;;14.00;1.00;;;;;;5071473;28;20384;-55
2022/10/30 04:19:57;;;;;;;18.88;7.78;;;14.10;1.00;;;;;;5072049;28;20918;-52
2022/10/30 04:22:22;;;;;;;16.80;6.73;;;14.00;1.00;;;;;;5072134;28;20384;-52
2022/10/30 04:24:48;;;;;;;17.58;7.10;;;14.00;1.00;;;;;;5070995;28;20430;-52
2022/10/30 04:27:14;;;;;;;19.17;7.90;;;14.10;1.00;;;;;;5071885;28;20868;-51
2022/10/30 04:29:41;;;;;;;20.08;7.00;;;14.10;1.00;;;;;;5071125;28;20387;-51
2022/10/30 04:32:07;;;;;;;12.97;6.90;;;14.20;1.00;;;;;;5071250;28;20430;-51
2022/10/30 04:34:33;;;;;;;15.18;6.57;;;14.20;1.00;;;;;;5070945;28;20466;-55
2022/10/30 04:36:59;;;;;;;18.70;7.50;;;14.10;1.00;;;;;;5071734;28;20837;-52
2022/10/30 04:39:24;;;;;;;14.38;6.53;;;14.20;1.00;;;;;;5071546;28;20425;-52
2022/10/30 04:41:50;;;;;;;14.53;6.60;;;14.20;1.00;;;;;;5070778;28;20387;-52
2022/10/30 04:44:16;;;;;;;13.67;6.93;;;14.10;1.00;;;;;;5071761;28;20956;-52
2022/10/30 04:46:41;;;;;;;16.92;7.30;;;14.00;1.00;;;;;;5070702;28;20379;-52
2022/10/30 04:49:07;;;;;;;19.77;6.72;;;14.00;1.00;;;;;;5071565;28;20387;-52
2022/10/30 04:51:33;;;;;;;16.73;7.30;;;13.90;1.00;;;;;;5070982;28;20421;-55
2022/10/30 04:53:59;;;;;;;13.10;6.57;;;13.90;1.00;;;;;;5071114;28;20395;-52
2022/10/30 04:56:24;;;;;;;16.38;7.32;;;13.90;1.00;;;;;;5071199;28;20877;-52
2022/10/30 04:58:51;;;;;;;15.30;6.67;;;13.90;1.00;;;;;;5070555;28;20648;-52
2022/10/30 05:01:16;;;;;;;18.40;7.15;;;14.00;1.00;;;;;;5071005;28;20378;-52
2022/10/30 05:03:42;;;;;;;16.20;6.30;;;13.80;1.00;;;;;;5070490;28;20372;-52
2022/10/30 05:06:25;;;;;;;18.30;7.00;;;13.70;1.00;;;;;;5071802;28;20380;-52
2022/10/30 05:08:51;;;;;;;15.48;6.45;;;13.70;1.00;;;;;;5070657;28;20427;-52
2022/10/30 05:11:17;;;;;;;17.50;6.83;;;13.60;1.00;;;;;;5071420;28;20406;-52
2022/10/30 05:13:43;;;;;;;14.80;6.40;;;13.60;1.00;;;;;;5070651;28;20525;-52
2022/10/30 05:16:09;;;;;;;15.73;6.50;;;13.60;1.00;;;;;;5071349;28;20845;-53
2022/10/30 05:18:34;;;;;;;16.42;6.75;;;13.70;1.00;;;;;;5070435;28;20438;-56
2022/10/30 05:21:00;;;;;;;12.80;5.50;;;13.70;1.00;;;;;;5069429;28;20388;-53
2022/10/30 05:23:25;;;;;;;12.50;6.45;;;13.70;1.00;;;;;;5070751;28;20819;-52
2022/10/30 05:25:51;;;;;;;15.67;5.60;;;13.70;1.00;;;;;;5070229;28;20376;-53
2022/10/30 05:28:17;;;;;;;16.30;6.50;;;13.70;1.00;;;;;;5070818;28;20471;-53
2022/10/30 05:30:42;;;;;;;15.30;6.30;;;13.70;1.00;;;;;;5070115;28;20380;-53
2022/10/30 05:33:10;;;;;;;14.13;6.00;;;13.70;1.00;;;;;;5068698;28;20427;-53
2022/10/30 05:35:36;;;;;;;12.55;5.85;;;13.70;1.00;;;;;;5051709;28;20478;-55
2022/10/30 05:38:05;;;;;;;16.63;6.85;;;13.70;1.00;;;;;;5070873;28;20386;-53
2022/10/30 05:40:32;;;;;;;17.17;6.32;;;13.70;1.00;;;;;;5070419;28;20842;-54
2022/10/30 05:42:58;;;;;;;16.70;6.38;;;13.70;1.00;;;;;;5069354;28;20833;-54
2022/10/30 05:45:23;;;;;;;18.03;6.40;;;13.60;1.00;;;;;;5070846;28;20372;-53
2022/10/30 05:47:56;;;;;;;13.20;5.90;;;13.50;1.00;;;;;;5069406;28;20873;-53
2022/10/30 05:50:22;;;;;;;13.57;6.22;;;13.60;1.00;;;;;;5070292;28;20380;-52
2022/10/30 05:52:47;;;;;;;15.55;5.68;;;13.50;1.00;;;;;;5070250;28;20684;-51
2022/10/30 05:55:13;;;;;;;12.97;5.23;;;13.50;1.00;;;;;;5052483;28;20379;-51
2022/10/30 05:57:39;;;;;;;14.45;6.05;;;13.40;1.00;;;;;;5069577;28;20376;-52
2022/10/30 06:00:05;;;;;;;15.38;5.75;;;13.40;1.00;;;;;;5069269;28;20380;-52
2022/10/30 06:02:32;;;;;;;18.02;6.20;;;13.40;1.00;;;;;;5070275;28;20399;-56
2022/10/30 06:04:57;;;;;;;14.95;6.13;;;13.40;1.00;;;;;;5062210;28;20433;-53
2022/10/30 06:07:23;;;;;;;17.13;5.80;;;13.50;1.00;;;;;;5070218;28;20392;-52
2022/10/30 06:09:48;;;;;;;12.00;4.90;;;13.40;1.00;;;;;;5069741;28;20392;-52
2022/10/30 06:12:14;;;;;;;13.07;5.63;;;13.50;1.00;;;;;;5070231;28;20403;-54
2022/10/30 06:14:39;;;;;;;16.87;5.67;;;13.50;1.00;;;;;;5069047;28;20434;-53
2022/10/30 06:17:05;;;;;;;11.18;5.30;;;13.50;1.00;;;;;;5070222;28;20372;-54
2022/10/30 06:19:31;;;;;;;14.82;4.82;;;13.60;1.00;;;;;;5069885;28;20375;-54
2022/10/30 06:21:56;;;;;;;15.97;5.50;;;13.60;1.00;;;;;;5068937;28;20459;-53
2022/10/30 06:24:22;;;;;;;11.18;4.78;;;13.60;1.00;;;;;;5069834;28;20380;-52
2022/10/30 06:26:49;;;;;;;10.90;4.90;;;13.70;1.00;;;;;;5068715;28;20833;-52
2022/10/30 06:29:15;;;;;;;12.95;5.00;;;13.70;1.00;;;;;;5070140;28;20468;-52
2022/10/30 06:31:40;;;;;;;12.73;6.00;;;13.60;1.00;;;;;;5069358;28;20479;-52
2022/10/30 06:34:06;;;;;;;13.10;4.80;;;13.60;1.00;;;;;;5069815;28;20417;-52
2022/10/30 06:36:32;;;;;;;13.47;5.20;;;13.60;1.00;;;;;;5069627;28;20454;-56
2022/10/30 06:38:57;;;;;;;14.90;5.50;;;13.70;1.00;;;;;;5069704;28;20779;-52
2022/10/30 06:41:23;;;;;;;15.52;5.10;;;13.70;1.00;;;;;;5069696;28;20379;-52
2022/10/30 06:43:48;;;;;;;12.25;5.50;;;13.70;1.00;;;;;;5069230;28;20998;-53
2022/10/30 06:46:14;;;;;;;11.47;4.63;;;13.80;99.90;;;;;;5069619;28;20448;-53
2022/10/30 06:48:39;;;;;;;14.53;5.13;;;13.90;99.90;;;;;;5069329;28;20733;-52
2022/10/30 06:51:05;;;;;;;17.73;5.60;;;14.20;99.90;;;;;;5069682;28;20455;-53
2022/10/30 06:53:31;;;;;;;11.37;4.83;;;14.20;99.90;;;;;;5070390;28;20407;-53
2022/10/30 06:56:03;;;;;;;10.23;4.70;;;14.20;99.90;;;;;;5072824;28;20756;-53
2022/10/30 06:58:29;;;;;;;12.18;5.60;;;14.20;99.90;;;;;;5073636;28;20506;-55
2022/10/30 07:00:58;;;;;;;15.18;5.70;;;14.30;99.90;;;;;;5072950;28;20525;-53
2022/10/30 07:03:23;;;;;;;14.63;5.43;;;14.30;99.90;;;;;;5073722;28;20499;-54
2022/10/30 07:05:50;;;;;;;19.60;5.72;;;14.60;99.90;;;;;;5072289;28;20379;-53
2022/10/30 07:08:21;;;;;;;14.10;4.97;;;14.90;40.90;;;;;;5073160;28;20391;-53
2022/10/30 07:10:46;;;;;;;12.20;5.13;;;15.50;1.00;;;;;;5054511;28;20764;-54
2022/10/30 07:13:12;;;;;;;13.47;5.40;;;16.30;1.00;;;;;;5073055;28;20403;-54
2022/10/30 07:15:38;;;;;;;10.57;5.03;;;17.40;99.90;;;;;;5072221;28;20391;-53
2022/10/30 07:18:03;;;;;;;15.47;5.57;;;18.10;47.50;;;;;;5072872;28;20380;-55
2022/10/30 07:20:32;;;;;;;11.00;4.68;;;18.70;99.90;;;;;;5072532;28;20372;-53
2022/10/30 07:22:57;;;;;;;14.40;4.90;;;19.00;99.90;;;;;;5071916;28;20394;-53
2022/10/30 07:25:23;;;;;;;14.57;5.10;;;19.40;1.00;;;;;;5055115;28;20375;-55
2022/10/30 07:27:51;;;;;;;13.73;5.00;;;19.70;1.00;;;;;;5072415;28;20744;-53
2022/10/30 07:30:19;;;;;;;10.48;5.00;;;20.30;1.00;;;;;;5072908;28;20388;-53
2022/10/30 07:32:45;;;;;;;12.63;5.00;;;20.90;1.00;;;;;;5071996;28;20430;-54
2022/10/30 07:35:12;;;;;;;13.60;5.00;;;21.70;1.00;;;;;;5072745;28;20383;-55
2022/10/30 07:37:39;;;;;;;12.00;5.47;;;22.50;1.00;;;;;;5072453;28;20376;-55
2022/10/30 07:40:05;;;;;;;11.45;4.68;;;23.10;1.00;;;;;;5072997;28;20375;-52
2022/10/30 07:42:32;;;;;;;14.13;4.40;;;23.50;1.00;;;;;;5072855;28;20436;-52
2022/10/30 07:44:58;;;;;;;14.90;5.00;;;23.90;99.90;;;;;;5072072;28;20376;-52
2022/10/30 07:47:23;;;;;;;11.77;4.80;;;24.10;99.90;;;;;;5072089;28;20380;-52
2022/10/30 07:49:49;;;;;;;12.82;5.05;;;24.50;99.90;;;;;;5071810;28;20376;-53
2022/10/30 07:52:15;;;;;;;17.52;4.97;;;24.50;99.90;;;;;;5072474;28;20453;-52
2022/10/30 07:54:41;;;;;;;14.45;4.95;;;25.20;99.90;;;;;;5071993;28;20402;-57
2022/10/30 07:57:06;;;;;;;11.77;4.77;;;25.60;99.90;;;;;;5071558;28;20433;-57
2022/10/30 07:59:32;;;;;;;11.30;5.10;;;26.00;99.90;;;;;;5072420;28;20379;-59
2022/10/30 08:01:59;;;;;;;12.67;5.10;;;26.20;99.90;;;;;;5071576;28;20399;-60
2022/10/30 08:04:25;;;;;;;15.80;5.03;;;26.30;99.90;;;;;;5071773;28;20384;-60
2022/10/30 08:06:51;;;;;;;15.18;5.00;;;26.50;99.90;;;;;;5071407;28;20418;-59
2022/10/30 08:09:17;;;;;;;13.90;5.60;;;26.60;99.90;;;;;;5072499;28;20380;-60
2022/10/30 08:11:42;;;;;;;13.83;5.37;;;26.50;99.90;;;;;;5071732;28;20388;-59
2022/10/30 08:14:08;;;;;;;11.60;5.00;;;26.60;99.90;;;;;;5071736;28;20839;-59
2022/10/30 08:16:34;;;;;;;11.07;5.70;;;27.00;99.90;;;;;;5072253;28;20376;-65
2022/10/30 08:18:59;;;;;;;12.57;5.83;;;27.30;99.90;;;;;;5072113;28;20368;-59
2022/10/30 08:21:25;;;;;;;11.00;4.60;;;27.40;99.90;;;;;;5072154;28;20740;-59
2022/10/30 08:23:51;;;;;;;10.82;4.75;;;27.50;99.90;;;;;;5071233;28;20478;-60
2022/10/30 08:26:17;;;;;;;12.77;4.70;;;27.50;99.90;;;;;;5071860;28;20443;-60
2022/10/30 08:28:42;;;;;;;13.47;10.20;;;27.60;99.90;;;;;;5070776;28;20865;-59
2022/10/30 08:31:08;;;;;;;10.23;4.73;;;28.20;99.90;;;;;;5072025;28;20380;-60
2022/10/30 08:33:34;;;;;;;13.60;4.50;;;27.80;99.90;;;;;;5071629;28;20435;-59
2022/10/30 08:36:00;;;;;;;12.80;5.00;;;27.70;99.90;;;;;;5071143;28;20382;-59
2022/10/30 08:38:27;;;;;;;13.80;7.13;;;28.50;99.90;;;;;;5071621;28;20380;-61
2022/10/30 08:40:53;;;;;;;10.18;4.80;;;28.90;99.90;;;;;;5071520;28;20512;-59
2022/10/30 08:43:19;;;;;;;18.47;15.80;;;29.30;99.90;;;;;;5053811;28;20490;-59
2022/10/30 08:45:45;;;;;;;16.48;6.28;;;29.80;99.90;;;;;;5071608;28;20372;-57
2022/10/30 08:48:13;;;;;;;11.25;5.10;;;30.00;99.90;;;;;;5071475;28;20379;-57
2022/10/30 08:50:38;;;;;;;12.90;5.60;;;30.00;99.90;;;;;;5070546;28;20411;-63
2022/10/30 08:53:06;;;;;;;16.20;5.60;;;30.50;99.90;;;;;;5071097;28;20438;-60
2022/10/30 08:55:33;;;;;;;12.88;8.70;;;30.30;99.90;;;;;;5053621;28;20444;-60
2022/10/30 08:57:59;;;;;;;16.95;10.68;;;30.30;99.90;;;;;;5070696;28;20415;-59
2022/10/30 09:00:25;;;;;;;15.40;9.83;;;30.70;99.90;;;;;;5071686;28;20380;-58
2022/10/30 09:02:51;;;;;;;12.90;8.40;;;29.90;99.90;;;;;;5070795;28;20771;-60
2022/10/30 09:05:17;;;;;;;15.55;9.00;;;29.50;99.90;;;;;;5071290;28;20451;-63
2022/10/30 09:07:43;;;;;;;13.67;9.10;;;29.10;99.90;;;;;;5070881;28;20490;-60
2022/10/30 09:10:09;;;;;;;12.80;8.00;;;28.70;99.90;;;;;;5070781;28;20394;-60
2022/10/30 09:12:35;;;;;;;12.98;9.40;;;29.30;99.90;;;;;;5070649;28;20491;-65
2022/10/30 09:15:00;;;;;;;15.35;9.73;;;30.00;99.90;;;;;;5070962;28;20396;-60
2022/10/30 09:17:26;;;;;;;14.40;9.60;;;30.50;99.90;;;;;;5069045;28;20702;-60
2022/10/30 09:19:52;;;;;;;11.60;8.70;;;31.10;99.90;;;;;;5070391;28;20710;-60
2022/10/30 09:22:17;;;;;;;11.00;8.27;;;30.80;99.90;;;;;;5070668;28;20445;-60
2022/10/30 09:24:43;;;;;;;18.30;9.90;;;30.70;99.90;;;;;;5070099;28;20387;-60
2022/10/30 09:27:09;;;;;;;14.57;8.70;;;30.90;99.90;;;;;;5070828;28;20455;-60
2022/10/30 09:29:35;;;;;;;15.10;9.05;;;31.10;99.90;;;;;;5070553;28;20411;-60
2022/10/30 09:32:03;;;;;;;15.10;7.55;;;31.50;99.90;;;;;;5070114;28;20420;-63
2022/10/30 09:34:29;;;;;;;12.23;4.22;;;31.10;99.90;;;;;;5070274;28;20493;-63
2022/10/30 09:36:55;;;;;;;13.63;4.18;;;31.10;99.90;;;;;;5068958;28;20477;-65
2022/10/30 09:39:21;;;;;;;11.90;4.50;;;31.50;99.90;;;;;;5061663;28;20818;-61
2022/10/30 09:42:07;;;;;;;14.83;4.30;;;31.10;99.90;;;;;;5050026;28;20373;-59
2022/10/30 09:44:51;;;;;;;10.10;3.95;;;31.10;99.90;;;;;;5000906;28;20396;-59
2022/10/30 09:47:45;;;;;;;14.73;4.00;;;31.10;99.90;;;;;;5070459;28;20383;-59
2022/10/30 09:50:25;;;;;;;12.82;4.20;;;31.40;99.90;;;;;;5018723;28;20740;-59
2022/10/30 09:53:11;;;;;;;15.20;4.05;;;31.60;99.90;;;;;;5054986;28;20418;-61
2022/10/30 09:56:02;;;;;;;13.80;8.77;;;31.30;99.90;;;;;;5050202;28;20380;-64
2022/10/30 09:58:48;;;;;;;14.30;4.72;;;31.40;99.90;;;;;;5050001;28;20484;-59
2022/10/30 10:01:13;;;;;;;11.20;4.40;;;31.10;99.90;;;;;;5050388;28;20369;-59
2022/10/30 10:04:11;;;;;;;11.17;4.43;;;30.80;99.90;;;;;;5048136;28;20389;-59
2022/10/30 10:06:42;;;;;;;14.40;7.00;;;31.20;99.90;;;;;;5050322;28;20365;-64
2022/10/30 10:09:20;;;;;;;13.15;4.50;;;31.50;99.90;;;;;;5032287;28;20781;-59
2022/10/30 10:12:05;;;;;;;9.93;3.80;;;31.40;99.90;;;;;;5049485;28;20384;-59
2022/10/30 10:14:36;;;;;;;11.88;3.90;;;31.40;99.90;;;;;;5064114;28;20558;-60
2022/10/30 10:17:08;;;;;;;11.95;4.03;;;31.80;99.90;;;;;;5068528;28;20399;-59
2022/10/30 10:19:58;;;;;;;10.07;4.18;;;31.00;99.90;;;;;;5070005;28;20403;-60
2022/10/30 10:22:37;;;;;;;10.13;3.78;;;30.80;99.90;;;;;;5053614;28;20383;-59
2022/10/30 10:25:11;;;;;;;9.93;3.90;;;30.10;99.90;;;;;;5051424;28;20805;-60
2022/10/30 10:27:36;;;;;;;9.73;3.55;;;29.70;99.90;;;;;;5069751;28;20379;-61
2022/10/30 10:30:22;;;;;;;20.97;10.63;;;29.70;99.90;;;;;;5069362;28;20446;-61
2022/10/30 10:33:21;;;;;;;13.00;5.70;;;30.10;99.90;;;;;;5068154;28;20622;-61
2022/10/30 10:36:06;;;;;;;9.40;3.90;;;30.50;99.90;;;;;;5052834;28;20374;-59
2022/10/30 10:38:34;;;;;;;11.73;4.35;;;30.90;99.90;;;;;;5051300;28;20400;-61
2022/10/30 10:41:20;;;;;;;13.25;4.03;;;30.90;99.90;;;;;;5066333;28;20386;-61
2022/10/30 10:43:57;;;;;;;10.88;3.58;;;30.80;99.90;;;;;;5049076;28;20851;-60
2022/10/30 10:46:49;;;;;;;10.48;4.07;;;31.00;99.90;;;;;;5048301;28;20911;-60
2022/10/30 10:49:29;;;;;;;8.70;2.97;;;31.00;99.90;;;;;;5049718;28;20381;-60
2022/10/30 10:52:03;;;;;;;12.57;3.57;;;30.80;99.90;;;;;;5049173;28;20404;-59
2022/10/30 10:54:43;;;;;;;9.52;3.65;;;30.30;99.90;;;;;;5049075;28;20457;-58
2022/10/30 10:57:44;;;;;;;13.23;4.57;;;30.00;99.90;;;;;;5067924;28;20387;-57
2022/10/30 11:00:15;;;;;;;15.15;4.65;;;30.20;99.90;;;;;;5048083;28;20815;-57
2022/10/30 11:02:53;;;;;;;10.33;4.20;;;29.70;99.90;;;;;;5068583;28;20411;-58
2022/10/30 11:05:36;;;;;;;8.65;3.47;;;29.60;99.90;;;;;;5047793;28;20853;-58
2022/10/30 11:08:20;;;;;;;11.70;3.53;;;29.80;99.90;;;;;;5066282;28;20388;-58
2022/10/30 11:11:16;;;;;;;11.20;3.80;;;30.10;99.90;;;;;;5063630;28;20406;-58
2022/10/30 11:13:44;;;;;;;12.77;4.90;;;29.70;99.90;;;;;;5062436;28;20762;-60
2022/10/30 11:16:28;;;;;;;11.70;3.97;;;28.90;99.90;;;;;;5069099;28;20415;-58
2022/10/30 11:19:02;;;;;;;11.07;7.45;;;28.50;99.90;;;;;;5066514;28;20431;-58
2022/10/30 11:21:32;;;;;;;10.50;6.57;;;28.00;99.90;;;;;;5063164;28;20423;-58
2022/10/30 11:23:58;;;;;;;9.52;6.57;;;27.70;99.90;;;;;;5065159;28;20823;-58
2022/10/30 11:26:27;;;;;;;12.32;6.90;;;27.60;99.90;;;;;;5067529;28;20519;-58
2022/10/30 11:28:58;;;;;;;14.95;7.38;;;27.60;99.90;;;;;;5068184;28;20404;-58
2022/10/30 11:31:34;;;;;;;13.50;6.07;;;27.50;99.90;;;;;;5068495;28;20400;-58
2022/10/30 11:34:17;;;;;;;11.65;6.00;;;27.30;99.90;;;;;;5065679;28;21119;-58
2022/10/30 11:36:47;;;;;;;11.40;5.60;;;27.20;99.90;;;;;;5066961;28;20471;-58
2022/10/30 11:39:17;;;;;;;12.90;6.00;;;26.90;99.90;;;;;;5066231;28;20808;-58
2022/10/30 11:41:53;;;;;;;10.77;6.07;;;26.80;99.90;;;;;;5071855;28;20380;-58
2022/10/30 11:44:18;;;;;;;13.35;6.20;;;26.90;99.90;;;;;;5069238;28;20397;-59
2022/10/30 11:46:45;;;;;;;12.52;5.40;;;26.80;99.90;;;;;;5053800;28;20383;-58
2022/10/30 11:49:36;;;;;;;8.70;5.20;;;26.90;99.90;;;;;;5071680;28;20415;-58
2022/10/30 11:52:03;;;;;;;11.17;5.70;;;26.80;99.90;;;;;;5072080;28;20473;-58
2022/10/30 11:54:29;;;;;;;10.27;5.00;;;26.90;99.90;;;;;;5072091;28;20403;-58
2022/10/30 11:56:56;;;;;;;13.60;6.10;;;27.00;99.90;;;;;;5071922;28;20467;-58
2022/10/30 11:59:23;;;;;;;12.75;5.38;;;27.00;99.90;;;;;;5072624;28;20368;-59
2022/10/30 12:02:00;;;;;;;12.10;5.97;;;27.00;99.90;;;;;;5064353;28;20793;-59
2022/10/30 12:04:28;;;;;;;18.52;5.78;;;26.80;99.90;;;;;;5065935;28;20395;-60
2022/10/30 12:07:07;;;;;;;10.93;6.00;;;26.80;99.90;;;;;;5070544;28;20387;-60
2022/10/30 12:09:42;;;;;;;10.27;5.25;;;27.00;99.90;;;;;;5071584;28;20466;-59
2022/10/30 12:12:17;;;;;;;9.90;4.97;;;26.90;99.90;;;;;;5070259;28;20478;-60
2022/10/30 12:14:43;;;;;;;10.82;6.53;;;26.90;99.90;;;;;;5071925;28;20474;-59
2022/10/30 12:17:14;;;;;;;12.05;5.35;;;26.80;99.90;;;;;;5084757;28;20938;-59
2022/10/30 12:19:49;;;;;;;9.48;5.10;;;26.70;99.90;;;;;;5059985;28;20403;-63
2022/10/30 12:22:30;;;;;;;9.70;4.70;;;26.80;99.90;;;;;;5076439;28;20394;-59
2022/10/30 12:25:00;;;;;;;14.35;5.90;;;26.90;99.90;;;;;;5082300;28;20461;-59
2022/10/30 12:27:27;;;;;;;10.18;4.90;;;26.70;99.90;;;;;;5085551;28;20920;-59
2022/10/30 12:29:59;;;;;;;12.43;5.90;;;26.60;99.90;;;;;;5075578;28;20443;-59
2022/10/30 12:32:32;;;;;;;10.93;5.90;;;26.80;99.90;;;;;;5051581;28;20421;-59
2022/10/30 12:35:27;;;;;;;11.40;5.47;;;26.80;99.90;;;;;;5059585;28;20605;-58
2022/10/30 12:37:55;;;;;;;14.70;5.10;;;26.90;99.90;;;;;;5049424;28;20898;-59
2022/10/30 12:40:25;;;;;;;11.50;5.28;;;26.80;99.90;;;;;;5065473;28;20395;-60
2022/10/30 12:43:02;;;;;;;13.45;5.95;;;26.70;99.90;;;;;;5078868;28;20386;-60
2022/10/30 12:45:46;;;;;;;11.80;5.60;;;26.40;99.90;;;;;;5075307;28;20896;-59
2022/10/30 12:48:24;;;;;;;12.40;5.20;;;26.40;99.90;;;;;;5066925;28;20470;-59
2022/10/30 12:51:08;;;;;;;12.38;5.57;;;26.50;99.90;;;;;;5062781;28;20431;-59
2022/10/30 12:53:44;;;;;;;13.00;5.50;;;26.60;99.90;;;;;;5077301;28;20423;-59
2022/10/30 12:56:25;;;;;;;12.82;5.78;;;26.50;99.90;;;;;;5078544;28;20382;-59
2022/10/30 12:59:12;;;;;;;12.18;6.50;;;26.80;99.90;;;;;;5071420;28;20400;-59